sensor_id;sensor_type;location;lat;lon;timestamp;P1;durP1;ratioP1;P2;durP2;ratioP2
69714;SDS011;56981;53.532;49.398;2023-05-10T00:00:43;1.30;;;1.10;;
69714;SDS011;56981;53.532;49.398;2023-05-10T00:03:09;3.33;;;1.10;;
69714;SDS011;56981;53.532;49.398;2023-05-10T00:05:36;1.63;;;1.02;;
69714;SDS011;56981;53.532;49.398;2023-05-10T00:08:02;3.00;;;1.00;;
69714;SDS011;56981;53.532;49.398;2023-05-10T00:10:28;3.40;;;1.17;;
69714;SDS011;56981;53.532;49.398;2023-05-10T00:12:54;5.28;;;1.30;;
69714;SDS011;56981;53.532;49.398;2023-05-10T00:15:20;2.83;;;1.05;;
69714;SDS011;56981;53.532;49.398;2023-05-10T00:17:46;2.15;;;1.02;;
69714;SDS011;56981;53.532;49.398;2023-05-10T00:20:13;1.15;;;0.80;;
69714;SDS011;56981;53.532;49.398;2023-05-10T00:22:39;1.30;;;1.00;;
69714;SDS011;56981;53.532;49.398;2023-05-10T00:25:08;3.42;;;1.30;;
69714;SDS011;56981;53.532;49.398;2023-05-10T00:27:35;1.63;;;0.90;;
69714;SDS011;56981;53.532;49.398;2023-05-10T00:30:01;2.50;;;0.82;;
69714;SDS011;56981;53.532;49.398;2023-05-10T00:32:27;2.70;;;0.75;;
69714;SDS011;56981;53.532;49.398;2023-05-10T00:34:53;1.77;;;0.90;;
69714;SDS011;56981;53.532;49.398;2023-05-10T00:37:20;1.15;;;0.80;;
69714;SDS011;56981;53.532;49.398;2023-05-10T00:39:46;1.30;;;0.88;;
69714;SDS011;56981;53.532;49.398;2023-05-10T00:42:12;0.60;;;0.60;;
69714;SDS011;56981;53.532;49.398;2023-05-10T00:44:38;1.42;;;0.93;;
69714;SDS011;56981;53.532;49.398;2023-05-10T00:47:04;0.95;;;0.80;;
69714;SDS011;56981;53.532;49.398;2023-05-10T00:49:30;3.03;;;0.82;;
69714;SDS011;56981;53.532;49.398;2023-05-10T00:51:56;0.82;;;0.68;;
69714;SDS011;56981;53.532;49.398;2023-05-10T00:54:23;5.20;;;1.35;;
69714;SDS011;56981;53.532;49.398;2023-05-10T00:56:50;1.35;;;0.75;;
69714;SDS011;56981;53.532;49.398;2023-05-10T00:59:17;2.47;;;0.70;;
69714;SDS011;56981;53.532;49.398;2023-05-10T01:01:44;2.47;;;0.80;;
69714;SDS011;56981;53.532;49.398;2023-05-10T01:04:11;1.77;;;1.00;;
69714;SDS011;56981;53.532;49.398;2023-05-10T01:06:39;1.95;;;0.80;;
69714;SDS011;56981;53.532;49.398;2023-05-10T01:09:05;4.28;;;0.80;;
69714;SDS011;56981;53.532;49.398;2023-05-10T01:11:33;1.77;;;0.90;;
69714;SDS011;56981;53.532;49.398;2023-05-10T01:14:00;3.45;;;1.10;;
69714;SDS011;56981;53.532;49.398;2023-05-10T01:16:28;2.13;;;0.90;;
69714;SDS011;56981;53.532;49.398;2023-05-10T01:18:57;1.42;;;0.70;;
69714;SDS011;56981;53.532;49.398;2023-05-10T01:21:37;1.45;;;0.85;;
69714;SDS011;56981;53.532;49.398;2023-05-10T01:24:12;2.50;;;0.80;;
69714;SDS011;56981;53.532;49.398;2023-05-10T01:27:07;0.80;;;0.60;;
69714;SDS011;56981;53.532;49.398;2023-05-10T01:33:05;2.38;;;0.80;;
69714;SDS011;56981;53.532;49.398;2023-05-10T01:35:43;2.40;;;0.88;;
69714;SDS011;56981;53.532;49.398;2023-05-10T01:38:41;0.98;;;0.68;;
69714;SDS011;56981;53.532;49.398;2023-05-10T01:46:39;1.05;;;0.70;;
69714;SDS011;56981;53.532;49.398;2023-05-10T01:49:09;1.10;;;0.88;;
69714;SDS011;56981;53.532;49.398;2023-05-10T01:51:49;3.22;;;0.90;;
69714;SDS011;56981;53.532;49.398;2023-05-10T01:54:17;2.30;;;0.80;;
69714;SDS011;56981;53.532;49.398;2023-05-10T01:56:47;2.05;;;0.98;;
69714;SDS011;56981;53.532;49.398;2023-05-10T01:59:18;2.65;;;0.88;;
69714;SDS011;56981;53.532;49.398;2023-05-10T02:01:46;3.45;;;0.80;;
69714;SDS011;56981;53.532;49.398;2023-05-10T02:04:15;1.30;;;1.10;;
69714;SDS011;56981;53.532;49.398;2023-05-10T02:06:43;1.00;;;0.90;;
69714;SDS011;56981;53.532;49.398;2023-05-10T02:09:10;1.08;;;0.93;;
69714;SDS011;56981;53.532;49.398;2023-05-10T02:11:38;3.80;;;1.13;;
69714;SDS011;56981;53.532;49.398;2023-05-10T02:14:07;2.22;;;1.10;;
69714;SDS011;56981;53.532;49.398;2023-05-10T02:16:36;2.28;;;0.90;;
69714;SDS011;56981;53.532;49.398;2023-05-10T02:19:04;1.42;;;1.05;;
69714;SDS011;56981;53.532;49.398;2023-05-10T02:21:32;1.58;;;0.88;;
69714;SDS011;56981;53.532;49.398;2023-05-10T02:24:00;2.50;;;0.65;;
69714;SDS011;56981;53.532;49.398;2023-05-10T02:26:28;1.25;;;0.68;;
69714;SDS011;56981;53.532;49.398;2023-05-10T02:28:56;1.65;;;0.80;;
69714;SDS011;56981;53.532;49.398;2023-05-10T02:31:23;2.92;;;0.80;;
69714;SDS011;56981;53.532;49.398;2023-05-10T02:33:51;2.10;;;0.98;;
69714;SDS011;56981;53.532;49.398;2023-05-10T02:36:18;1.80;;;0.82;;
69714;SDS011;56981;53.532;49.398;2023-05-10T02:38:47;2.30;;;0.90;;
69714;SDS011;56981;53.532;49.398;2023-05-10T02:41:15;1.77;;;0.77;;
69714;SDS011;56981;53.532;49.398;2023-05-10T02:43:42;4.35;;;1.13;;
69714;SDS011;56981;53.532;49.398;2023-05-10T02:46:09;1.38;;;0.85;;
69714;SDS011;56981;53.532;49.398;2023-05-10T02:48:35;2.53;;;0.98;;
69714;SDS011;56981;53.532;49.398;2023-05-10T02:51:04;1.05;;;0.75;;
69714;SDS011;56981;53.532;49.398;2023-05-10T02:53:33;0.88;;;0.60;;
69714;SDS011;56981;53.532;49.398;2023-05-10T02:56:04;1.77;;;0.95;;
69714;SDS011;56981;53.532;49.398;2023-05-10T02:58:35;5.85;;;0.82;;
69714;SDS011;56981;53.532;49.398;2023-05-10T03:01:01;1.25;;;0.60;;
69714;SDS011;56981;53.532;49.398;2023-05-10T03:03:27;1.10;;;0.80;;
69714;SDS011;56981;53.532;49.398;2023-05-10T03:05:53;1.60;;;0.80;;
69714;SDS011;56981;53.532;49.398;2023-05-10T03:08:21;2.42;;;0.80;;
69714;SDS011;56981;53.532;49.398;2023-05-10T03:13:53;1.67;;;0.75;;
69714;SDS011;56981;53.532;49.398;2023-05-10T03:16:33;3.55;;;0.95;;
69714;SDS011;56981;53.532;49.398;2023-05-10T03:19:30;2.03;;;0.73;;
69714;SDS011;56981;53.532;49.398;2023-05-10T03:22:03;1.35;;;0.90;;
69714;SDS011;56981;53.532;49.398;2023-05-10T03:24:34;3.83;;;0.82;;
69714;SDS011;56981;53.532;49.398;2023-05-10T03:27:02;2.60;;;0.70;;
69714;SDS011;56981;53.532;49.398;2023-05-10T03:29:29;1.80;;;0.73;;
69714;SDS011;56981;53.532;49.398;2023-05-10T03:32:00;0.68;;;0.40;;
69714;SDS011;56981;53.532;49.398;2023-05-10T03:34:26;1.65;;;0.70;;
69714;SDS011;56981;53.532;49.398;2023-05-10T03:36:52;1.35;;;0.60;;
69714;SDS011;56981;53.532;49.398;2023-05-10T03:39:18;5.28;;;0.80;;
69714;SDS011;56981;53.532;49.398;2023-05-10T03:41:44;1.50;;;0.70;;
69714;SDS011;56981;53.532;49.398;2023-05-10T03:44:11;1.98;;;1.00;;
69714;SDS011;56981;53.532;49.398;2023-05-10T03:46:37;4.80;;;0.90;;
69714;SDS011;56981;53.532;49.398;2023-05-10T03:49:03;1.85;;;0.70;;
69714;SDS011;56981;53.532;49.398;2023-05-10T03:51:29;3.67;;;1.00;;
69714;SDS011;56981;53.532;49.398;2023-05-10T03:53:56;8.18;;;1.25;;
69714;SDS011;56981;53.532;49.398;2023-05-10T03:56:22;2.45;;;0.98;;
69714;SDS011;56981;53.532;49.398;2023-05-10T03:58:48;1.90;;;0.85;;
69714;SDS011;56981;53.532;49.398;2023-05-10T04:01:15;2.17;;;0.98;;
69714;SDS011;56981;53.532;49.398;2023-05-10T04:03:41;1.10;;;0.88;;
69714;SDS011;56981;53.532;49.398;2023-05-10T04:06:07;5.45;;;1.30;;
69714;SDS011;56981;53.532;49.398;2023-05-10T04:08:34;5.25;;;1.40;;
69714;SDS011;56981;53.532;49.398;2023-05-10T04:11:07;5.60;;;1.30;;
69714;SDS011;56981;53.532;49.398;2023-05-10T04:13:33;5.03;;;1.17;;
69714;SDS011;56981;53.532;49.398;2023-05-10T04:16:00;2.15;;;0.88;;
69714;SDS011;56981;53.532;49.398;2023-05-10T04:18:26;1.33;;;0.80;;
69714;SDS011;56981;53.532;49.398;2023-05-10T04:20:53;3.65;;;0.80;;
69714;SDS011;56981;53.532;49.398;2023-05-10T04:23:19;3.75;;;0.80;;
69714;SDS011;56981;53.532;49.398;2023-05-10T04:25:45;3.63;;;1.00;;
69714;SDS011;56981;53.532;49.398;2023-05-10T04:28:11;1.90;;;0.70;;
69714;SDS011;56981;53.532;49.398;2023-05-10T04:30:37;4.13;;;1.00;;
69714;SDS011;56981;53.532;49.398;2023-05-10T04:33:03;2.63;;;0.82;;
69714;SDS011;56981;53.532;49.398;2023-05-10T04:35:29;3.75;;;1.05;;
69714;SDS011;56981;53.532;49.398;2023-05-10T04:37:55;2.30;;;0.80;;
69714;SDS011;56981;53.532;49.398;2023-05-10T04:40:21;2.17;;;0.70;;
69714;SDS011;56981;53.532;49.398;2023-05-10T04:42:47;0.98;;;0.60;;
69714;SDS011;56981;53.532;49.398;2023-05-10T04:45:13;2.10;;;0.80;;
69714;SDS011;56981;53.532;49.398;2023-05-10T04:47:42;2.58;;;1.13;;
69714;SDS011;56981;53.532;49.398;2023-05-10T04:50:08;4.43;;;1.02;;
69714;SDS011;56981;53.532;49.398;2023-05-10T04:52:34;1.65;;;0.63;;
69714;SDS011;56981;53.532;49.398;2023-05-10T04:55:01;1.98;;;0.70;;
69714;SDS011;56981;53.532;49.398;2023-05-10T04:57:27;1.20;;;0.73;;
69714;SDS011;56981;53.532;49.398;2023-05-10T04:59:54;4.10;;;1.02;;
69714;SDS011;56981;53.532;49.398;2023-05-10T05:02:20;2.83;;;0.85;;
69714;SDS011;56981;53.532;49.398;2023-05-10T05:04:47;0.93;;;0.77;;
69714;SDS011;56981;53.532;49.398;2023-05-10T05:07:13;2.35;;;0.80;;
69714;SDS011;56981;53.532;49.398;2023-05-10T05:09:38;1.77;;;0.82;;
69714;SDS011;56981;53.532;49.398;2023-05-10T05:12:04;4.57;;;2.47;;
69714;SDS011;56981;53.532;49.398;2023-05-10T05:14:31;2.65;;;1.48;;
69714;SDS011;56981;53.532;49.398;2023-05-10T05:16:57;2.38;;;1.00;;
69714;SDS011;56981;53.532;49.398;2023-05-10T05:19:23;2.50;;;1.00;;
69714;SDS011;56981;53.532;49.398;2023-05-10T05:21:49;1.67;;;0.70;;
69714;SDS011;56981;53.532;49.398;2023-05-10T05:24:16;3.03;;;0.70;;
69714;SDS011;56981;53.532;49.398;2023-05-10T05:26:42;2.55;;;0.70;;
69714;SDS011;56981;53.532;49.398;2023-05-10T05:29:08;2.92;;;1.13;;
69714;SDS011;56981;53.532;49.398;2023-05-10T05:31:34;3.05;;;0.90;;
69714;SDS011;56981;53.532;49.398;2023-05-10T05:34:01;1.15;;;0.65;;
69714;SDS011;56981;53.532;49.398;2023-05-10T05:36:27;5.07;;;1.10;;
69714;SDS011;56981;53.532;49.398;2023-05-10T05:38:53;1.63;;;0.80;;
69714;SDS011;56981;53.532;49.398;2023-05-10T05:41:20;6.43;;;0.90;;
69714;SDS011;56981;53.532;49.398;2023-05-10T05:43:47;1.85;;;0.70;;
69714;SDS011;56981;53.532;49.398;2023-05-10T05:46:13;1.30;;;0.70;;
69714;SDS011;56981;53.532;49.398;2023-05-10T05:48:40;2.58;;;0.82;;
69714;SDS011;56981;53.532;49.398;2023-05-10T05:51:06;3.08;;;0.75;;
69714;SDS011;56981;53.532;49.398;2023-05-10T05:53:32;2.92;;;1.48;;
69714;SDS011;56981;53.532;49.398;2023-05-10T05:55:58;1.75;;;1.35;;
69714;SDS011;56981;53.532;49.398;2023-05-10T05:58:25;2.05;;;1.10;;
69714;SDS011;56981;53.532;49.398;2023-05-10T06:00:51;0.60;;;0.60;;
69714;SDS011;56981;53.532;49.398;2023-05-10T06:03:18;1.85;;;0.60;;
69714;SDS011;56981;53.532;49.398;2023-05-10T06:05:44;3.67;;;0.70;;
69714;SDS011;56981;53.532;49.398;2023-05-10T06:08:11;0.90;;;0.70;;
69714;SDS011;56981;53.532;49.398;2023-05-10T06:10:37;1.75;;;0.80;;
69714;SDS011;56981;53.532;49.398;2023-05-10T06:13:03;2.05;;;0.73;;
69714;SDS011;56981;53.532;49.398;2023-05-10T06:15:30;0.70;;;0.70;;
69714;SDS011;56981;53.532;49.398;2023-05-10T06:17:56;1.15;;;0.50;;
69714;SDS011;56981;53.532;49.398;2023-05-10T06:20:22;1.98;;;0.90;;
69714;SDS011;56981;53.532;49.398;2023-05-10T06:22:49;2.35;;;0.70;;
69714;SDS011;56981;53.532;49.398;2023-05-10T06:25:15;2.25;;;0.82;;
69714;SDS011;56981;53.532;49.398;2023-05-10T06:27:44;1.20;;;0.60;;
69714;SDS011;56981;53.532;49.398;2023-05-10T06:30:10;1.10;;;0.75;;
69714;SDS011;56981;53.532;49.398;2023-05-10T06:32:39;1.88;;;0.57;;
69714;SDS011;56981;53.532;49.398;2023-05-10T06:35:05;2.17;;;0.70;;
69714;SDS011;56981;53.532;49.398;2023-05-10T06:37:32;1.80;;;0.60;;
69714;SDS011;56981;53.532;49.398;2023-05-10T06:39:58;4.72;;;0.80;;
69714;SDS011;56981;53.532;49.398;2023-05-10T06:42:24;4.05;;;0.88;;
69714;SDS011;56981;53.532;49.398;2023-05-10T06:44:51;2.15;;;0.60;;
69714;SDS011;56981;53.532;49.398;2023-05-10T06:47:17;1.75;;;0.70;;
69714;SDS011;56981;53.532;49.398;2023-05-10T06:49:43;1.80;;;0.80;;
69714;SDS011;56981;53.532;49.398;2023-05-10T06:52:10;3.92;;;0.80;;
69714;SDS011;56981;53.532;49.398;2023-05-10T06:54:36;1.67;;;1.00;;
69714;SDS011;56981;53.532;49.398;2023-05-10T06:57:03;0.60;;;0.60;;
69714;SDS011;56981;53.532;49.398;2023-05-10T06:59:29;2.63;;;0.70;;
69714;SDS011;56981;53.532;49.398;2023-05-10T07:01:56;1.00;;;0.60;;
69714;SDS011;56981;53.532;49.398;2023-05-10T07:04:22;1.95;;;0.90;;
69714;SDS011;56981;53.532;49.398;2023-05-10T07:06:48;0.57;;;0.47;;
69714;SDS011;56981;53.532;49.398;2023-05-10T07:09:15;2.95;;;0.80;;
69714;SDS011;56981;53.532;49.398;2023-05-10T07:11:41;0.80;;;0.80;;
69714;SDS011;56981;53.532;49.398;2023-05-10T07:14:07;2.05;;;0.80;;
69714;SDS011;56981;53.532;49.398;2023-05-10T07:16:34;0.93;;;0.52;;
69714;SDS011;56981;53.532;49.398;2023-05-10T07:19:00;1.92;;;0.77;;
69714;SDS011;56981;53.532;49.398;2023-05-10T07:21:26;1.42;;;0.60;;
69714;SDS011;56981;53.532;49.398;2023-05-10T07:23:54;1.70;;;0.80;;
69714;SDS011;56981;53.532;49.398;2023-05-10T07:26:20;1.33;;;0.60;;
69714;SDS011;56981;53.532;49.398;2023-05-10T07:28:46;1.13;;;0.60;;
69714;SDS011;56981;53.532;49.398;2023-05-10T07:31:12;2.88;;;0.95;;
69714;SDS011;56981;53.532;49.398;2023-05-10T07:33:38;1.73;;;0.90;;
69714;SDS011;56981;53.532;49.398;2023-05-10T07:36:04;3.92;;;1.23;;
69714;SDS011;56981;53.532;49.398;2023-05-10T07:38:30;1.95;;;0.80;;
69714;SDS011;56981;53.532;49.398;2023-05-10T07:40:56;1.50;;;0.75;;
69714;SDS011;56981;53.532;49.398;2023-05-10T07:43:22;1.70;;;0.80;;
69714;SDS011;56981;53.532;49.398;2023-05-10T07:45:48;0.68;;;0.63;;
69714;SDS011;56981;53.532;49.398;2023-05-10T07:48:15;1.83;;;0.70;;
69714;SDS011;56981;53.532;49.398;2023-05-10T07:50:41;2.13;;;0.80;;
69714;SDS011;56981;53.532;49.398;2023-05-10T07:53:07;1.83;;;0.60;;
69714;SDS011;56981;53.532;49.398;2023-05-10T07:55:33;3.22;;;1.60;;
69714;SDS011;56981;53.532;49.398;2023-05-10T07:57:59;1.65;;;0.95;;
69714;SDS011;56981;53.532;49.398;2023-05-10T08:00:26;4.65;;;1.20;;
69714;SDS011;56981;53.532;49.398;2023-05-10T08:02:53;1.45;;;1.20;;
69714;SDS011;56981;53.532;49.398;2023-05-10T08:05:19;1.60;;;1.13;;
69714;SDS011;56981;53.532;49.398;2023-05-10T08:07:45;2.15;;;0.90;;
69714;SDS011;56981;53.532;49.398;2023-05-10T08:10:11;0.95;;;0.90;;
69714;SDS011;56981;53.532;49.398;2023-05-10T08:12:37;2.00;;;0.90;;
69714;SDS011;56981;53.532;49.398;2023-05-10T08:15:03;2.55;;;1.10;;
69714;SDS011;56981;53.532;49.398;2023-05-10T08:17:30;1.10;;;1.00;;
69714;SDS011;56981;53.532;49.398;2023-05-10T08:19:56;1.33;;;0.98;;
69714;SDS011;56981;53.532;49.398;2023-05-10T08:22:22;2.42;;;1.13;;
69714;SDS011;56981;53.532;49.398;2023-05-10T08:24:48;4.63;;;1.70;;
69714;SDS011;56981;53.532;49.398;2023-05-10T08:27:14;2.70;;;1.30;;
69714;SDS011;56981;53.532;49.398;2023-05-10T08:29:40;5.70;;;1.65;;
69714;SDS011;56981;53.532;49.398;2023-05-10T08:32:06;2.40;;;1.70;;
69714;SDS011;56981;53.532;49.398;2023-05-10T08:34:32;2.72;;;1.30;;
69714;SDS011;56981;53.532;49.398;2023-05-10T08:36:58;3.67;;;1.60;;
69714;SDS011;56981;53.532;49.398;2023-05-10T08:39:24;3.45;;;1.60;;
69714;SDS011;56981;53.532;49.398;2023-05-10T08:41:50;5.75;;;1.38;;
69714;SDS011;56981;53.532;49.398;2023-05-10T08:44:18;1.90;;;1.35;;
69714;SDS011;56981;53.532;49.398;2023-05-10T08:46:46;3.20;;;1.40;;
69714;SDS011;56981;53.532;49.398;2023-05-10T08:49:16;1.35;;;1.23;;
69714;SDS011;56981;53.532;49.398;2023-05-10T08:51:47;1.73;;;1.10;;
69714;SDS011;56981;53.532;49.398;2023-05-10T08:54:17;3.50;;;2.13;;
69714;SDS011;56981;53.532;49.398;2023-05-10T08:56:43;6.63;;;2.70;;
69714;SDS011;56981;53.532;49.398;2023-05-10T08:59:09;6.57;;;3.55;;
69714;SDS011;56981;53.532;49.398;2023-05-10T09:01:35;5.32;;;3.63;;
69714;SDS011;56981;53.532;49.398;2023-05-10T09:04:03;5.82;;;3.95;;
69714;SDS011;56981;53.532;49.398;2023-05-10T09:06:29;3.15;;;2.00;;
69714;SDS011;56981;53.532;49.398;2023-05-10T09:08:55;2.75;;;2.20;;
69714;SDS011;56981;53.532;49.398;2023-05-10T09:11:22;5.63;;;2.30;;
69714;SDS011;56981;53.532;49.398;2023-05-10T09:13:48;2.78;;;1.70;;
69714;SDS011;56981;53.532;49.398;2023-05-10T09:16:17;7.65;;;3.17;;
69714;SDS011;56981;53.532;49.398;2023-05-10T09:18:42;8.35;;;4.45;;
69714;SDS011;56981;53.532;49.398;2023-05-10T09:21:09;8.75;;;4.03;;
69714;SDS011;56981;53.532;49.398;2023-05-10T09:23:36;6.10;;;4.28;;
69714;SDS011;56981;53.532;49.398;2023-05-10T09:26:02;7.90;;;5.15;;
69714;SDS011;56981;53.532;49.398;2023-05-10T09:31:22;8.13;;;4.97;;
69714;SDS011;56981;53.532;49.398;2023-05-10T09:33:50;4.72;;;3.22;;
69714;SDS011;56981;53.532;49.398;2023-05-10T09:36:16;6.63;;;3.33;;
69714;SDS011;56981;53.532;49.398;2023-05-10T09:38:46;5.53;;;3.13;;
69714;SDS011;56981;53.532;49.398;2023-05-10T09:41:17;5.82;;;3.78;;
69714;SDS011;56981;53.532;49.398;2023-05-10T09:43:47;8.65;;;3.78;;
69714;SDS011;56981;53.532;49.398;2023-05-10T09:46:13;6.78;;;4.38;;
69714;SDS011;56981;53.532;49.398;2023-05-10T09:48:47;5.82;;;3.90;;
69714;SDS011;56981;53.532;49.398;2023-05-10T09:51:23;9.65;;;4.55;;
69714;SDS011;56981;53.532;49.398;2023-05-10T09:56:35;5.57;;;4.05;;
69714;SDS011;56981;53.532;49.398;2023-05-10T09:59:04;7.78;;;4.75;;
69714;SDS011;56981;53.532;49.398;2023-05-10T10:01:31;9.60;;;3.88;;
69714;SDS011;56981;53.532;49.398;2023-05-10T10:03:57;5.90;;;2.97;;
69714;SDS011;56981;53.532;49.398;2023-05-10T10:06:24;5.22;;;3.40;;
69714;SDS011;56981;53.532;49.398;2023-05-10T10:08:51;7.47;;;3.65;;
69714;SDS011;56981;53.532;49.398;2023-05-10T10:11:17;8.07;;;5.07;;
69714;SDS011;56981;53.532;49.398;2023-05-10T10:13:44;6.25;;;3.85;;
69714;SDS011;56981;53.532;49.398;2023-05-10T10:16:09;5.35;;;3.75;;
69714;SDS011;56981;53.532;49.398;2023-05-10T10:18:36;6.85;;;3.92;;
69714;SDS011;56981;53.532;49.398;2023-05-10T10:21:10;6.13;;;3.88;;
69714;SDS011;56981;53.532;49.398;2023-05-10T10:23:38;7.65;;;4.60;;
69714;SDS011;56981;53.532;49.398;2023-05-10T10:26:04;8.82;;;4.10;;
69714;SDS011;56981;53.532;49.398;2023-05-10T10:31:23;7.05;;;5.00;;
69714;SDS011;56981;53.532;49.398;2023-05-10T10:33:55;9.25;;;4.93;;
69714;SDS011;56981;53.532;49.398;2023-05-10T10:36:44;8.38;;;5.20;;
69714;SDS011;56981;53.532;49.398;2023-05-10T10:39:12;6.82;;;5.18;;
69714;SDS011;56981;53.532;49.398;2023-05-10T10:41:40;8.68;;;5.85;;
69714;SDS011;56981;53.532;49.398;2023-05-10T10:47:06;6.45;;;4.75;;
69714;SDS011;56981;53.532;49.398;2023-05-10T10:52:31;9.80;;;5.28;;
69714;SDS011;56981;53.532;49.398;2023-05-10T10:57:33;8.90;;;5.25;;
69714;SDS011;56981;53.532;49.398;2023-05-10T11:02:51;9.25;;;5.70;;
69714;SDS011;56981;53.532;49.398;2023-05-10T11:07:55;8.10;;;5.10;;
69714;SDS011;56981;53.532;49.398;2023-05-10T11:10:22;10.70;;;5.55;;
69714;SDS011;56981;53.532;49.398;2023-05-10T11:15:29;6.40;;;4.90;;
69714;SDS011;56981;53.532;49.398;2023-05-10T11:20:28;8.18;;;5.13;;
69714;SDS011;56981;53.532;49.398;2023-05-10T11:23:10;8.68;;;5.57;;
69714;SDS011;56981;53.532;49.398;2023-05-10T11:25:41;7.82;;;6.25;;
69714;SDS011;56981;53.532;49.398;2023-05-10T11:28:09;9.23;;;5.20;;
69714;SDS011;56981;53.532;49.398;2023-05-10T11:30:37;7.57;;;4.82;;
69714;SDS011;56981;53.532;49.398;2023-05-10T11:33:05;10.25;;;4.95;;
69714;SDS011;56981;53.532;49.398;2023-05-10T11:35:43;8.85;;;4.60;;
69714;SDS011;56981;53.532;49.398;2023-05-10T11:38:09;7.97;;;4.70;;
69714;SDS011;56981;53.532;49.398;2023-05-10T11:40:37;6.63;;;4.10;;
69714;SDS011;56981;53.532;49.398;2023-05-10T11:43:03;12.43;;;4.80;;
69714;SDS011;56981;53.532;49.398;2023-05-10T11:45:34;10.23;;;6.22;;
69714;SDS011;56981;53.532;49.398;2023-05-10T11:48:01;10.70;;;4.65;;
69714;SDS011;56981;53.532;49.398;2023-05-10T11:50:28;8.55;;;4.80;;
69714;SDS011;56981;53.532;49.398;2023-05-10T11:52:54;9.18;;;4.72;;
69714;SDS011;56981;53.532;49.398;2023-05-10T11:55:22;6.35;;;3.70;;
69714;SDS011;56981;53.532;49.398;2023-05-10T11:57:59;6.95;;;3.78;;
69714;SDS011;56981;53.532;49.398;2023-05-10T12:00:26;7.13;;;3.92;;
69714;SDS011;56981;53.532;49.398;2023-05-10T12:02:52;22.45;;;4.80;;
69714;SDS011;56981;53.532;49.398;2023-05-10T12:05:18;5.32;;;4.20;;
69714;SDS011;56981;53.532;49.398;2023-05-10T12:07:44;7.63;;;4.35;;
69714;SDS011;56981;53.532;49.398;2023-05-10T12:10:11;9.27;;;3.63;;
69714;SDS011;56981;53.532;49.398;2023-05-10T12:12:41;8.18;;;3.65;;
69714;SDS011;56981;53.532;49.398;2023-05-10T12:15:11;7.47;;;4.15;;
69714;SDS011;56981;53.532;49.398;2023-05-10T12:17:45;6.97;;;4.35;;
69714;SDS011;56981;53.532;49.398;2023-05-10T12:20:22;6.63;;;4.07;;
69714;SDS011;56981;53.532;49.398;2023-05-10T12:25:17;7.75;;;3.78;;
69714;SDS011;56981;53.532;49.398;2023-05-10T12:27:53;3.90;;;3.42;;
69714;SDS011;56981;53.532;49.398;2023-05-10T12:30:26;8.07;;;4.20;;
69714;SDS011;56981;53.532;49.398;2023-05-10T12:33:13;6.18;;;4.13;;
69714;SDS011;56981;53.532;49.398;2023-05-10T12:35:45;5.25;;;3.92;;
69714;SDS011;56981;53.532;49.398;2023-05-10T12:38:29;6.32;;;3.78;;
69714;SDS011;56981;53.532;49.398;2023-05-10T12:40:59;6.80;;;4.15;;
69714;SDS011;56981;53.532;49.398;2023-05-10T12:43:25;4.90;;;3.67;;
69714;SDS011;56981;53.532;49.398;2023-05-10T12:45:52;7.72;;;5.03;;
69714;SDS011;56981;53.532;49.398;2023-05-10T12:48:18;6.75;;;4.50;;
69714;SDS011;56981;53.532;49.398;2023-05-10T12:50:45;10.77;;;5.00;;
69714;SDS011;56981;53.532;49.398;2023-05-10T12:53:16;15.20;;;8.45;;
69714;SDS011;56981;53.532;49.398;2023-05-10T12:55:42;11.10;;;6.07;;
69714;SDS011;56981;53.532;49.398;2023-05-10T12:58:09;8.45;;;5.47;;
69714;SDS011;56981;53.532;49.398;2023-05-10T13:00:35;7.05;;;4.95;;
69714;SDS011;56981;53.532;49.398;2023-05-10T13:03:04;8.38;;;4.40;;
69714;SDS011;56981;53.532;49.398;2023-05-10T13:05:32;5.47;;;3.85;;
69714;SDS011;56981;53.532;49.398;2023-05-10T13:07:58;6.43;;;3.60;;
69714;SDS011;56981;53.532;49.398;2023-05-10T13:10:24;7.03;;;3.88;;
69714;SDS011;56981;53.532;49.398;2023-05-10T13:12:51;6.22;;;3.65;;
69714;SDS011;56981;53.532;49.398;2023-05-10T13:15:17;12.05;;;4.57;;
69714;SDS011;56981;53.532;49.398;2023-05-10T13:17:43;9.00;;;4.30;;
69714;SDS011;56981;53.532;49.398;2023-05-10T13:20:10;7.53;;;3.90;;
69714;SDS011;56981;53.532;49.398;2023-05-10T13:22:37;12.68;;;6.88;;
69714;SDS011;56981;53.532;49.398;2023-05-10T13:25:03;8.73;;;4.30;;
69714;SDS011;56981;53.532;49.398;2023-05-10T13:27:30;7.13;;;4.63;;
69714;SDS011;56981;53.532;49.398;2023-05-10T13:29:59;7.22;;;4.57;;
69714;SDS011;56981;53.532;49.398;2023-05-10T13:32:25;14.27;;;10.35;;
69714;SDS011;56981;53.532;49.398;2023-05-10T13:34:52;10.32;;;7.03;;
69714;SDS011;56981;53.532;49.398;2023-05-10T13:37:18;6.63;;;4.65;;
69714;SDS011;56981;53.532;49.398;2023-05-10T13:39:44;4.38;;;2.78;;
69714;SDS011;56981;53.532;49.398;2023-05-10T13:42:11;23.20;;;17.90;;
69714;SDS011;56981;53.532;49.398;2023-05-10T13:44:37;5.65;;;2.60;;
69714;SDS011;56981;53.532;49.398;2023-05-10T13:47:04;18.05;;;14.52;;
69714;SDS011;56981;53.532;49.398;2023-05-10T13:49:30;5.38;;;2.08;;
69714;SDS011;56981;53.532;49.398;2023-05-10T13:51:57;5.20;;;3.20;;
69714;SDS011;56981;53.532;49.398;2023-05-10T13:54:23;2.42;;;1.60;;
69714;SDS011;56981;53.532;49.398;2023-05-10T13:56:50;5.03;;;1.70;;
69714;SDS011;56981;53.532;49.398;2023-05-10T13:59:16;4.35;;;1.55;;
69714;SDS011;56981;53.532;49.398;2023-05-10T14:01:42;6.10;;;1.65;;
69714;SDS011;56981;53.532;49.398;2023-05-10T14:04:09;8.48;;;1.45;;
69714;SDS011;56981;53.532;49.398;2023-05-10T14:06:36;4.53;;;1.92;;
69714;SDS011;56981;53.532;49.398;2023-05-10T14:09:03;3.95;;;1.33;;
69714;SDS011;56981;53.532;49.398;2023-05-10T14:11:29;6.43;;;1.75;;
69714;SDS011;56981;53.532;49.398;2023-05-10T14:13:55;2.42;;;1.20;;
69714;SDS011;56981;53.532;49.398;2023-05-10T14:16:22;7.40;;;1.55;;
69714;SDS011;56981;53.532;49.398;2023-05-10T14:18:48;6.28;;;1.48;;
69714;SDS011;56981;53.532;49.398;2023-05-10T14:21:14;2.42;;;1.40;;
69714;SDS011;56981;53.532;49.398;2023-05-10T14:23:41;3.03;;;1.10;;
69714;SDS011;56981;53.532;49.398;2023-05-10T14:26:07;6.22;;;1.25;;
69714;SDS011;56981;53.532;49.398;2023-05-10T14:28:34;5.82;;;1.27;;
69714;SDS011;56981;53.532;49.398;2023-05-10T14:31:00;5.35;;;1.45;;
69714;SDS011;56981;53.532;49.398;2023-05-10T14:33:26;3.30;;;0.98;;
69714;SDS011;56981;53.532;49.398;2023-05-10T14:35:53;4.10;;;1.40;;
69714;SDS011;56981;53.532;49.398;2023-05-10T14:38:22;4.32;;;1.17;;
69714;SDS011;56981;53.532;49.398;2023-05-10T14:40:49;4.65;;;1.17;;
69714;SDS011;56981;53.532;49.398;2023-05-10T14:43:15;2.45;;;1.38;;
69714;SDS011;56981;53.532;49.398;2023-05-10T14:45:46;2.58;;;1.40;;
69714;SDS011;56981;53.532;49.398;2023-05-10T14:48:18;7.10;;;1.27;;
69714;SDS011;56981;53.532;49.398;2023-05-10T14:50:49;4.20;;;1.33;;
69714;SDS011;56981;53.532;49.398;2023-05-10T14:53:16;2.28;;;1.23;;
69714;SDS011;56981;53.532;49.398;2023-05-10T14:55:42;2.85;;;1.40;;
69714;SDS011;56981;53.532;49.398;2023-05-10T14:58:08;1.92;;;0.95;;
69714;SDS011;56981;53.532;49.398;2023-05-10T15:00:35;3.60;;;1.20;;
69714;SDS011;56981;53.532;49.398;2023-05-10T15:03:01;10.68;;;5.82;;
69714;SDS011;56981;53.532;49.398;2023-05-10T15:05:27;3.17;;;1.33;;
69714;SDS011;56981;53.532;49.398;2023-05-10T15:07:54;4.22;;;1.67;;
69714;SDS011;56981;53.532;49.398;2023-05-10T15:10:25;10.60;;;2.13;;
69714;SDS011;56981;53.532;49.398;2023-05-10T15:12:51;6.10;;;2.00;;
69714;SDS011;56981;53.532;49.398;2023-05-10T15:15:23;2.75;;;1.90;;
69714;SDS011;56981;53.532;49.398;2023-05-10T15:17:49;3.17;;;1.95;;